Time;durP1;ratioP1;P1;durP2;ratioP2;P2;SDS_P1;SDS_P2;PMS_P1;PMS_P2;Temp;Humidity;BMP_temperature;BMP_pressure;BME280_temperature;BME280_humidity;BME280_pressure;Samples;Min_cycle;Max_cycle;Signal;HPM_P1;HPM_P2
2022/01/17 00:01:19;;;;;;;;;;;5.60;99.90;;;;;;4599822;30;19942;-82
2022/01/17 00:08:55;;;;;;;;;;;5.60;99.90;;;;;;5183882;27;19930;-81
2022/01/17 00:11:22;;;;;;;;;;;5.70;99.90;;;;;;5110898;28;19931;-80
2022/01/17 00:13:49;;;;;;;;;;;5.60;99.90;;;;;;5097307;28;19918;-81
2022/01/17 00:16:19;;;;;;;;;;;5.60;99.90;;;;;;5049468;28;19917;-81
2022/01/17 00:19:28;;;;;;;;;;;5.60;99.90;;;;;;4988386;28;19934;-80
2022/01/17 00:21:53;;;;;;;;;;;5.60;99.90;;;;;;4685549;29;19941;-83
2022/01/17 00:24:21;;;;;;;;;;;5.60;99.90;;;;;;4406526;31;19940;-85
2022/01/17 00:31:49;;;;;;;;;;;5.70;99.90;;;;;;5161469;27;19926;-83
2022/01/17 00:34:16;;;;;;;;;;;5.70;99.90;;;;;;5099200;27;19924;-81
2022/01/17 00:36:43;;;;;;;;;;;5.70;99.90;;;;;;5097767;28;19927;-83
2022/01/17 00:39:09;;;;;;;;;;;5.70;99.90;;;;;;5066266;28;19925;-84
2022/01/17 00:41:36;;;;;;;;;;;5.80;99.90;;;;;;5008312;28;19950;-81
2022/01/17 00:44:03;;;;;;;;;;;5.80;99.90;;;;;;4847903;29;19929;-86
2022/01/17 00:46:30;;;;;;;;;;;5.80;99.90;;;;;;4661054;29;19932;-84
2022/01/17 00:51:36;;;;;;;;;;;5.80;99.90;;;;;;5163049;27;19942;-81
2022/01/17 00:54:03;;;;;;;;;;;5.90;99.90;;;;;;5116611;27;19924;-85
2022/01/17 00:56:30;;;;;;;;;;;5.90;99.90;;;;;;5110033;28;19931;-82
2022/01/17 00:58:56;;;;;;;;;;;5.90;99.90;;;;;;5053788;28;19926;-84
2022/01/17 01:01:23;;;;;;;;;;;5.90;99.90;;;;;;4961198;28;19928;-86
2022/01/17 01:03:49;;;;;;;;;;;5.90;99.90;;;;;;4827966;29;19937;-84
2022/01/17 01:06:16;;;;;;;;;;;5.90;99.90;;;;;;4632917;30;19941;-83
2022/01/17 01:13:48;;;;;;;;;;;5.90;99.90;;;;;;5174798;27;19925;-84
2022/01/17 01:16:33;;;;;;;;;;;5.90;99.90;;;;;;5125537;27;19946;-83
2022/01/17 01:19:25;;;;;;;;;;;6.00;99.90;;;;;;5091241;28;19925;-82
2022/01/17 01:30:23;;;;;;;;;;;6.10;99.90;;;;;;4414139;31;19940;-83
2022/01/17 01:37:51;;;;;;;;;;;6.10;99.90;;;;;;5197557;27;19910;-79
2022/01/17 01:40:19;;;;;;;;;;;6.20;99.90;;;;;;5161679;27;19911;-81
2022/01/17 01:42:45;;;;;;;;;;;6.20;99.90;;;;;;5131285;27;19923;-81
2022/01/17 01:45:13;;;;;;;;;;;6.20;99.90;;;;;;5111246;28;19924;-84
2022/01/17 01:47:40;;;;;;;;;;;6.10;99.90;;;;;;5029980;28;19930;-88
2022/01/17 01:50:08;;;;;;;;;;;6.20;99.90;;;;;;4920964;28;19936;-87
2022/01/17 01:52:34;;;;;;;;;;;6.10;99.90;;;;;;4620647;29;19942;-85
2022/01/17 02:00:08;;;;;;;;;;;6.10;99.90;;;;;;5183437;27;19926;-83
2022/01/17 02:02:36;;;;;;;;;;;6.10;99.90;;;;;;5129779;27;19924;-81
2022/01/17 02:05:03;;;;;;;;;;;6.10;99.90;;;;;;5128063;27;19930;-80
2022/01/17 02:07:29;;;;;;;;;;;6.00;99.90;;;;;;5113856;27;19923;-81
2022/01/17 02:09:56;;;;;;;;;;;6.00;99.90;;;;;;5112243;28;19929;-87
2022/01/17 02:12:23;;;;;;;;;;;5.90;99.90;;;;;;4922963;28;19930;-86
2022/01/17 02:14:50;;;;;;;;;;;5.80;99.90;;;;;;4686657;29;19945;-82
2022/01/17 02:22:21;;;;;;;;;;;5.50;99.90;;;;;;5157410;27;19926;-81
2022/01/17 02:24:48;;;;;;;;;;;5.50;99.90;;;;;;5136141;27;19923;-83
2022/01/17 02:27:15;;;;;;;;;;;5.50;99.90;;;;;;5115336;28;19931;-81
2022/01/17 02:29:41;;;;;;;;;;;5.40;99.90;;;;;;5098407;28;19923;-84
2022/01/17 02:32:08;;;;;;;;;;;5.50;99.90;;;;;;5000656;28;19927;-84
2022/01/17 02:34:39;;;;;;;;;;;5.50;99.90;;;;;;4833603;29;19938;-82
2022/01/17 02:37:05;;;;;;;;;;;5.50;99.90;;;;;;4515604;30;19944;-86
2022/01/17 02:44:44;;;;;;;;;;;5.60;99.90;;;;;;5176848;27;19930;-86
2022/01/17 02:47:11;;;;;;;;;;;5.70;99.90;;;;;;5115747;27;19931;-84
2022/01/17 02:49:38;;;;;;;;;;;5.70;99.90;;;;;;5110930;27;19923;-83
2022/01/17 02:52:05;;;;;;;;;;;5.80;99.90;;;;;;5097770;28;19931;-87
2022/01/17 02:54:31;;;;;;;;;;;5.80;99.90;;;;;;5026860;28;19938;-82
2022/01/17 02:56:58;;;;;;;;;;;5.80;99.90;;;;;;4950985;28;19943;-84
2022/01/17 02:59:25;;;;;;;;;;;5.80;99.90;;;;;;4812180;29;19919;-83
2022/01/17 03:06:58;;;;;;;;;;;5.80;99.90;;;;;;5186015;27;19930;-85
2022/01/17 03:09:26;;;;;;;;;;;5.90;99.90;;;;;;5121935;27;19923;-84
2022/01/17 03:11:53;;;;;;;;;;;5.90;99.90;;;;;;5120372;27;19938;-83
2022/01/17 03:14:19;;;;;;;;;;;5.90;99.90;;;;;;5102759;28;19928;-83
2022/01/17 03:16:48;;;;;;;;;;;5.90;99.90;;;;;;5008506;28;19931;-83
2022/01/17 03:19:15;;;;;;;;;;;5.90;99.90;;;;;;4905537;29;19928;-84
2022/01/17 03:21:42;;;;;;;;;;;5.90;99.90;;;;;;4673709;29;19941;-85
2022/01/17 03:29:16;;;;;;;;;;;5.90;99.90;;;;;;5173449;27;19926;-84
2022/01/17 03:31:43;;;;;;;;;;;5.90;99.90;;;;;;5109900;28;19924;-83
2022/01/17 03:34:09;;;;;;;;;;;5.90;99.90;;;;;;5111733;27;19941;-81
2022/01/17 03:36:36;;;;;;;;;;;5.90;99.90;;;;;;5130115;27;19931;-80
2022/01/17 03:39:03;;;;;;;;;;;5.90;99.90;;;;;;5071153;28;19937;-82
2022/01/17 03:41:29;;;;;;;;;;;5.90;99.90;;;;;;4912789;28;19928;-82
2022/01/17 03:43:56;;;;;;;;;;;5.80;99.90;;;;;;4763424;29;19932;-81
2022/01/17 03:51:28;;;;;;;;;;;5.80;99.90;;;;;;5170885;27;19926;-83
2022/01/17 03:53:55;;;;;;;;;;;5.80;99.90;;;;;;5115765;27;19931;-81
2022/01/17 03:56:21;;;;;;;;;;;5.80;99.90;;;;;;5091301;28;19932;-85
2022/01/17 03:58:49;;;;;;;;;;;5.80;99.90;;;;;;5056916;28;19932;-82
2022/01/17 04:01:16;;;;;;;;;;;5.90;99.90;;;;;;4970641;28;19949;-85
2022/01/17 04:03:42;;;;;;;;;;;5.80;99.90;;;;;;4817970;29;19937;-85
2022/01/17 04:06:09;;;;;;;;;;;5.80;99.90;;;;;;4527773;30;19938;-81
2022/01/17 04:13:42;;;;;;;;;;;5.80;99.90;;;;;;5184893;27;19925;-83
2022/01/17 04:16:11;;;;;;;;;;;5.80;99.90;;;;;;5120463;27;19923;-82
2022/01/17 04:18:38;;;;;;;;;;;5.80;99.90;;;;;;5138969;27;19923;-82
2022/01/17 04:21:05;;;;;;;;;;;5.80;99.90;;;;;;5121731;28;19932;-85
2022/01/17 04:23:31;;;;;;;;;;;5.80;99.90;;;;;;5052461;28;19926;-84
2022/01/17 04:25:58;;;;;;;;;;;5.80;99.90;;;;;;4926097;28;19932;-83
2022/01/17 04:28:24;;;;;;;;;;;5.80;99.90;;;;;;4755067;29;19931;-81
2022/01/17 04:33:34;;;;;;;;;;;5.80;99.90;;;;;;5184671;27;19929;-81
2022/01/17 04:36:06;;;;;;;;;;;5.80;99.90;;;;;;5150026;27;19934;-81
2022/01/17 04:38:32;;;;;;;;;;;5.80;99.90;;;;;;5112722;28;19924;-83
2022/01/17 04:41:01;;;;;;;;;;;5.80;99.90;;;;;;5088255;28;19932;-84
2022/01/17 04:43:44;;;;;;;;;;;5.80;99.90;;;;;;5003435;28;19934;-82
2022/01/17 04:46:11;;;;;;;;;;;5.70;99.90;;;;;;4824670;29;19931;-85
2022/01/17 04:48:39;;;;;;;;;;;5.70;99.90;;;;;;4526574;30;19937;-89
2022/01/17 04:56:07;;;;;;;;;;;5.70;99.90;;;;;;5174193;27;19925;-88
2022/01/17 04:58:33;;;;;;;;;;;5.70;99.90;;;;;;5135648;27;19930;-86
2022/01/17 05:01:01;;;;;;;;;;;5.70;99.90;;;;;;5115374;28;19923;-82
2022/01/17 05:03:28;;;;;;;;;;;5.70;99.90;;;;;;5092495;27;19924;-82
2022/01/17 05:05:55;;;;;;;;;;;5.70;99.90;;;;;;5066497;28;19936;-85
2022/01/17 05:08:21;;;;;;;;;;;5.70;99.90;;;;;;4956078;28;19928;-82
2022/01/17 05:10:52;;;;;;;;;;;5.70;99.90;;;;;;4774422;29;19931;-87
2022/01/17 05:19:47;;;;;;;;;;;5.70;99.90;;;;;;5173869;27;19925;-86
2022/01/17 05:21:12;;;;;;;;;;;5.70;99.90;;;;;;5113287;27;19923;-85
2022/01/17 05:23:40;;;;;;;;;;;5.70;99.90;;;;;;5052291;28;19932;-89
2022/01/17 05:26:07;;;;;;;;;;;5.70;99.90;;;;;;5040018;28;19926;-84
2022/01/17 05:28:34;;;;;;;;;;;5.70;99.90;;;;;;4946081;28;19928;-85
2022/01/17 05:31:00;;;;;;;;;;;5.70;99.90;;;;;;4797088;29;19930;-86
2022/01/17 05:33:30;;;;;;;;;;;5.80;99.90;;;;;;4599047;30;19939;-81
2022/01/17 05:41:01;;;;;;;;;;;5.80;99.90;;;;;;5169382;27;19925;-83
2022/01/17 05:43:28;;;;;;;;;;;5.80;99.90;;;;;;5141794;27;19930;-81
2022/01/17 05:45:55;;;;;;;;;;;5.80;99.90;;;;;;5125250;27;19927;-85
2022/01/17 05:48:21;;;;;;;;;;;5.80;99.90;;;;;;5125763;28;19911;-86
2022/01/17 05:50:48;;;;;;;;;;;5.80;99.90;;;;;;5073100;28;19926;-80
2022/01/17 05:53:15;;;;;;;;;;;5.80;99.90;;;;;;4866712;29;19937;-84
2022/01/17 05:55:41;;;;;;;;;;;5.80;99.90;;;;;;4727566;30;19948;-82
2022/01/17 06:03:16;;;;;;;;;;;5.90;99.90;;;;;;5176095;27;19926;-83
2022/01/17 06:05:43;;;;;;;;;;;5.80;99.90;;;;;;5141336;27;19924;-86
2022/01/17 06:08:10;;;;;;;;;;;5.80;99.90;;;;;;5139970;27;19938;-86
2022/01/17 06:10:38;;;;;;;;;;;5.90;99.90;;;;;;5144602;27;19924;-89
2022/01/17 06:13:05;;;;;;;;;;;5.80;99.90;;;;;;5080208;28;19933;-81
2022/01/17 06:15:31;;;;;;;;;;;5.80;99.90;;;;;;4907560;28;19929;-80
2022/01/17 06:17:58;;;;;;;;;;;5.80;99.90;;;;;;4574070;30;19947;-87
2022/01/17 06:24:14;;;;;;;;;;;5.80;99.90;;;;;;5173864;27;19926;-86
2022/01/17 06:26:42;;;;;;;;;;;5.80;99.90;;;;;;5137304;27;19929;-85
2022/01/17 06:29:10;;;;;;;;;;;5.80;99.90;;;;;;5137825;27;19935;-86
2022/01/17 06:31:37;;;;;;;;;;;5.70;99.90;;;;;;5116757;28;19924;-81
2022/01/17 06:34:03;;;;;;;;;;;5.60;99.90;;;;;;4977881;28;19928;-82
2022/01/17 06:36:30;;;;;;;;;;;5.60;99.90;;;;;;4813401;29;19930;-83
2022/01/17 06:38:57;;;;;;;;;;;5.50;99.90;;;;;;4622149;30;19958;-82
2022/01/17 06:45:43;;;;;;;;;;;5.50;99.90;;;;;;5173616;27;19926;-83
2022/01/17 06:48:09;;;;;;;;;;;5.40;99.90;;;;;;5133137;27;19924;-83
2022/01/17 06:50:36;;;;;;;;;;;5.30;99.90;;;;;;5126600;28;19938;-85
2022/01/17 06:53:03;;;;;;;;;;;5.30;99.90;;;;;;5051890;28;19925;-83
2022/01/17 06:55:30;;;;;;;;;;;5.30;99.90;;;;;;4915327;28;19936;-82
2022/01/17 06:57:57;;;;;;;;;;;5.30;99.90;;;;;;4714108;30;19936;-86
2022/01/17 07:00:23;;;;;;;;;;;5.20;99.90;;;;;;4566202;30;19942;-83
2022/01/17 07:07:56;;;;;;;;;;;5.20;99.90;;;;;;5182359;27;19925;-81
2022/01/17 07:10:25;;;;;;;;;;;5.20;99.90;;;;;;5141190;27;19934;-84
2022/01/17 07:12:52;;;;;;;;;;;5.20;99.90;;;;;;5132240;27;19923;-82
2022/01/17 07:15:19;;;;;;;;;;;5.20;99.90;;;;;;5055340;28;19913;-82
2022/01/17 07:17:45;;;;;;;;;;;5.20;99.90;;;;;;5014844;28;19934;-85
2022/01/17 07:20:12;;;;;;;;;;;5.20;99.90;;;;;;4810627;28;19940;-85
2022/01/17 07:22:39;;;;;;;;;;;5.10;99.90;;;;;;4582448;30;19935;-83
2022/01/17 07:30:11;;;;;;;;;;;5.20;99.90;;;;;;5174873;27;19926;-84
2022/01/17 07:32:37;;;;;;;;;;;5.20;99.90;;;;;;5111973;27;19924;-83
2022/01/17 07:35:08;;;;;;;;;;;5.20;99.90;;;;;;5117723;27;19931;-85
2022/01/17 07:37:35;;;;;;;;;;;5.30;99.90;;;;;;5105081;28;19932;-83
2022/01/17 07:40:02;;;;;;;;;;;5.40;99.90;;;;;;4974709;28;19928;-83
2022/01/17 07:42:29;;;;;;;;;;;5.40;99.90;;;;;;4775649;29;19943;-87
2022/01/17 07:44:57;;;;;;;;;;;5.40;99.90;;;;;;4600524;30;20014;-83
2022/01/17 07:52:30;;;;;;;;;;;5.50;99.90;;;;;;5157547;27;19926;-88
2022/01/17 07:54:57;;;;;;;;;;;5.60;99.90;;;;;;5118055;27;19923;-85
2022/01/17 07:57:24;;;;;;;;;;;5.60;99.90;;;;;;5112711;28;19932;-83
2022/01/17 07:59:51;;;;;;;;;;;5.60;99.90;;;;;;5049847;28;19926;-84
2022/01/17 08:02:17;;;;;;;;;;;5.60;99.90;;;;;;4972040;28;19927;-83
2022/01/17 08:04:44;;;;;;;;;;;5.70;99.90;;;;;;4824955;29;19939;-84
2022/01/17 08:07:11;;;;;;;;;;;5.60;99.90;;;;;;4535248;30;19960;-84
2022/01/17 08:13:58;;;;;;;;;;;5.60;99.90;;;;;;5167184;27;19925;-84
2022/01/17 08:16:25;;;;;;;;;;;5.60;99.90;;;;;;5130666;27;19923;-81
2022/01/17 08:18:52;;;;;;;;;;;5.60;99.90;;;;;;5119129;28;19939;-81
2022/01/17 08:21:19;;;;;;;;;;;5.60;99.90;;;;;;5078903;28;19925;-83
2022/01/17 08:23:46;;;;;;;;;;;5.60;99.90;;;;;;4980944;28;19930;-83
2022/01/17 08:26:13;;;;;;;;;;;5.60;99.90;;;;;;4793298;29;19940;-85
2022/01/17 08:28:41;;;;;;;;;;;5.60;99.90;;;;;;4533850;30;19944;-85
2022/01/17 08:35:40;;;;;;;;;;;5.70;99.90;;;;;;5187606;27;19926;-82
2022/01/17 08:38:13;;;;;;;;;;;5.70;99.90;;;;;;5178021;27;19923;-81
2022/01/17 08:40:39;;;;;;;;;;;5.70;99.90;;;;;;5148544;27;19924;-86
2022/01/17 08:43:07;;;;;;;;;;;5.70;99.90;;;;;;5066085;28;20000;-84
2022/01/17 08:45:34;;;;;;;;;;;5.80;99.90;;;;;;4955996;28;19936;-85
2022/01/17 08:48:00;;;;;;;;;;;5.70;99.90;;;;;;4833175;29;19930;-86
2022/01/17 08:50:27;;;;;;;;;;;5.80;99.90;;;;;;4563635;30;19936;-87
2022/01/17 08:57:25;;;;;;;;;;;5.80;99.90;;;;;;5174298;27;19938;-85
2022/01/17 08:59:52;;;;;;;;;;;5.90;99.90;;;;;;5138739;27;19923;-86
2022/01/17 09:02:19;;;;;;;;;;;5.90;99.90;;;;;;5113746;28;19932;-87
2022/01/17 09:04:46;;;;;;;;;;;6.00;99.90;;;;;;5084388;28;19924;-84
2022/01/17 09:07:14;;;;;;;;;;;6.00;99.90;;;;;;4977446;28;19943;-83
2022/01/17 09:09:41;;;;;;;;;;;6.00;99.90;;;;;;4804683;29;19937;-84
2022/01/17 09:12:09;;;;;;;;;;;6.00;99.90;;;;;;4568417;30;19935;-83
2022/01/17 09:19:42;;;;;;;;;;;6.00;99.90;;;;;;5174303;27;19926;-84
2022/01/17 09:22:10;;;;;;;;;;;5.90;99.90;;;;;;5122548;27;19923;-84
2022/01/17 09:24:37;;;;;;;;;;;5.90;99.90;;;;;;5112471;28;19938;-84
2022/01/17 09:27:05;;;;;;;;;;;5.90;99.90;;;;;;5091852;28;19929;-80
2022/01/17 09:29:32;;;;;;;;;;;5.90;99.90;;;;;;4970694;28;19935;-83
2022/01/17 09:32:00;;;;;;;;;;;5.90;99.90;;;;;;4781125;29;19933;-84
2022/01/17 09:34:27;;;;;;;;;;;5.80;99.90;;;;;;4476318;31;19965;-80
2022/01/17 09:41:59;;;;;;;;;;;5.80;99.90;;;;;;5160959;27;19938;-81
2022/01/17 09:44:26;;;;;;;;;;;5.80;99.90;;;;;;5118995;27;19931;-86
2022/01/17 09:46:55;;;;;;;;;;;5.80;99.90;;;;;;5114673;27;19947;-83
2022/01/17 09:49:25;;;;;;;;;;;5.90;99.90;;;;;;5088359;28;19932;-83
2022/01/17 09:54:39;;;;;;;;;;;5.90;99.90;;;;;;4840757;28;19938;-82
2022/01/17 09:57:08;;;;;;;;;;;5.90;99.90;;;;;;4653503;30;19932;-84
2022/01/17 10:04:44;;;;;;;;;;;5.60;99.90;;;;;;5190521;27;19929;-82
2022/01/17 10:07:11;;;;;;;;;;;5.60;99.90;;;;;;5139480;27;19930;-85
2022/01/17 10:09:40;;;;;;;;;;;5.50;99.90;;;;;;5136765;27;19938;-84
2022/01/17 10:12:08;;;;;;;;;;;5.60;99.90;;;;;;5107433;28;19959;-83
2022/01/17 10:14:37;;;;;;;;;;;5.70;99.90;;;;;;4993414;28;19927;-81
2022/01/17 10:17:05;;;;;;;;;;;5.80;99.90;;;;;;4827091;29;19938;-82
2022/01/17 10:19:36;;;;;;;;;;;5.80;99.90;;;;;;4568553;30;19943;-80
2022/01/17 10:35:15;;;;;;;;;;;6.20;99.90;;;;;;5023260;28;19926;-84
2022/01/17 10:37:42;;;;;;;;;;;6.20;99.90;;;;;;4891532;28;19928;-81
2022/01/17 10:40:12;;;;;;;;;;;6.20;99.90;;;;;;4695632;30;19932;-83
2022/01/17 10:42:43;;;;;;;;;;;6.30;99.90;;;;;;4417332;31;19947;-84
2022/01/17 10:50:20;;;;;;;;;;;6.20;99.90;;;;;;5173874;27;19926;-86
2022/01/17 10:52:49;;;;;;;;;;;6.10;99.90;;;;;;5115414;27;19924;-85
2022/01/17 10:55:16;;;;;;;;;;;6.00;99.90;;;;;;5133810;27;19923;-85
2022/01/17 10:57:45;;;;;;;;;;;5.90;99.90;;;;;;5105011;28;19932;-84
2022/01/17 11:00:14;;;;;;;;;;;5.80;99.90;;;;;;5018429;28;19926;-84
2022/01/17 11:02:43;;;;;;;;;;;5.80;99.90;;;;;;4807252;29;19935;-87
2022/01/17 11:05:11;;;;;;;;;;;5.80;99.90;;;;;;4526127;30;19935;-83
2022/01/17 11:12:45;;;;;;;;;;;5.40;99.90;;;;;;5153801;27;19921;-83
2022/01/17 11:15:13;;;;;;;;;;;5.00;99.90;;;;;;5118008;27;19923;-86
2022/01/17 11:17:47;;;;;;;;;;;4.70;99.90;;;;;;5109170;28;19923;-81
2022/01/17 11:20:14;;;;;;;;;;;4.50;99.90;;;;;;5030282;28;19926;-83
2022/01/17 11:22:43;;;;;;;;;;;4.20;99.90;;;;;;4944129;28;19936;-82
2022/01/17 11:25:11;;;;;;;;;;;4.00;99.90;;;;;;4739968;29;19948;-83
2022/01/17 11:27:38;;;;;;;;;;;3.90;99.90;;;;;;4408841;31;19923;-86
2022/01/17 11:35:13;;;;;;;;;;;3.60;99.90;;;;;;5175914;27;19926;-83
2022/01/17 11:37:42;;;;;;;;;;;3.50;99.90;;;;;;5137230;27;19934;-83
2022/01/17 11:40:09;;;;;;;;;;;3.40;99.90;;;;;;5134996;27;19930;-85
2022/01/17 11:42:37;;;;;;;;;;;3.50;99.90;;;;;;5092597;28;19931;-84
2022/01/17 11:45:25;;;;;;;;;;;3.50;99.90;;;;;;5048876;28;19927;-82
2022/01/17 11:47:52;;;;;;;;;;;3.50;99.90;;;;;;4894347;28;19937;-84
2022/01/17 11:50:32;;;;;;;;;;;3.50;99.90;;;;;;4537762;29;19938;-84
2022/01/17 11:58:11;;;;;;;;;;;3.50;99.90;;;;;;5176476;27;19926;-83
2022/01/17 12:00:38;;;;;;;;;;;3.60;99.90;;;;;;5102943;27;19931;-82
2022/01/17 12:03:16;;;;;;;;;;;3.70;99.90;;;;;;5066796;28;19932;-82
2022/01/17 12:05:43;;;;;;;;;;;3.70;99.90;;;;;;5032500;28;19926;-83
2022/01/17 12:08:11;;;;;;;;;;;3.70;99.90;;;;;;4986163;28;19934;-84
2022/01/17 12:10:39;;;;;;;;;;;3.70;99.90;;;;;;4869854;29;19936;-84
2022/01/17 12:13:34;;;;;;;;;;;3.60;99.90;;;;;;4670123;29;19933;-83
2022/01/17 12:21:18;;;;;;;;;;;3.70;99.90;;;;;;5178419;27;19926;-83
2022/01/17 12:23:45;;;;;;;;;;;3.80;99.90;;;;;;5099925;27;19939;-81
2022/01/17 12:26:25;;;;;;;;;;;3.90;99.90;;;;;;5107808;27;19935;-84
2022/01/17 12:28:52;;;;;;;;;;;3.90;99.90;;;;;;5060269;28;19925;-82
2022/01/17 12:31:34;;;;;;;;;;;3.90;99.90;;;;;;5014256;28;19927;-82
2022/01/17 12:34:13;;;;;;;;;;;4.00;99.90;;;;;;4818654;29;19931;-86
2022/01/17 12:36:42;;;;;;;;;;;4.10;99.90;;;;;;4430662;30;19939;-85
2022/01/17 12:43:05;;;;;;;;;;;4.10;99.90;;;;;;5177267;27;19942;-82
2022/01/17 12:45:34;;;;;;;;;;;4.20;99.90;;;;;;5139181;27;19923;-84
2022/01/17 12:48:02;;;;;;;;;;;4.20;99.90;;;;;;5159146;27;19923;-84
2022/01/17 12:50:32;;;;;;;;;;;4.20;99.90;;;;;;5145799;27;19924;-82
2022/01/17 12:53:00;;;;;;;;;;;4.30;99.90;;;;;;5037009;28;19926;-81
2022/01/17 12:55:33;;;;;;;;;;;4.30;99.90;;;;;;4855197;29;21795;-83
2022/01/17 12:58:00;;;;;;;;;;;4.40;99.90;;;;;;4603214;30;19940;-84
2022/01/17 13:04:49;;;;;;;;;;;4.50;99.90;;;;;;5179880;27;19925;-84
2022/01/17 13:07:16;;;;;;;;;;;4.50;99.90;;;;;;5157247;27;19930;-86
2022/01/17 13:09:43;;;;;;;;;;;4.60;99.90;;;;;;5124452;28;19933;-82
2022/01/17 13:12:10;;;;;;;;;;;4.70;99.90;;;;;;5070212;28;19936;-84
2022/01/17 13:14:36;;;;;;;;;;;4.70;99.90;;;;;;5012826;28;19910;-84
2022/01/17 13:17:06;;;;;;;;;;;4.70;99.90;;;;;;4854146;29;19931;-84
2022/01/17 13:19:35;;;;;;;;;;;4.60;99.90;;;;;;4605514;30;19934;-83
2022/01/17 13:27:12;;;;;;;;;;;4.40;99.90;;;;;;5178332;27;19925;-83
2022/01/17 13:29:40;;;;;;;;;;;4.30;99.90;;;;;;5121988;27;19924;-85
2022/01/17 13:32:08;;;;;;;;;;;4.40;99.90;;;;;;5127509;27;19924;-83
2022/01/17 13:34:35;;;;;;;;;;;4.50;99.90;;;;;;5081535;28;19924;-85
2022/01/17 13:37:03;;;;;;;;;;;4.50;99.90;;;;;;5010963;28;19927;-81
2022/01/17 13:39:30;;;;;;;;;;;4.50;99.90;;;;;;4884528;29;19929;-88
2022/01/17 13:41:58;;;;;;;;;;;4.40;99.90;;;;;;4652271;29;19962;-84
2022/01/17 13:49:07;;;;;;;;;;;4.40;99.90;;;;;;5174949;27;19941;-82
2022/01/17 13:51:34;;;;;;;;;;;4.40;99.90;;;;;;5127561;27;19923;-84
2022/01/17 13:54:01;;;;;;;;;;;4.50;99.90;;;;;;5116879;27;19931;-84
2022/01/17 13:56:32;;;;;;;;;;;4.50;99.90;;;;;;5097457;28;19935;-86
2022/01/17 13:58:58;;;;;;;;;;;4.50;99.90;;;;;;5000475;28;19938;-84
2022/01/17 14:01:31;;;;;;;;;;;4.50;99.90;;;;;;4821099;29;19937;-85
2022/01/17 14:03:59;;;;;;;;;;;4.50;99.90;;;;;;4562806;30;19936;-83
2022/01/17 14:13:07;;;;;;;;;;;4.50;99.90;;;;;;5196867;27;19910;-85
2022/01/17 14:15:34;;;;;;;;;;;4.40;99.90;;;;;;5150265;27;19922;-84
2022/01/17 14:18:05;;;;;;;;;;;4.40;99.90;;;;;;5121950;28;19924;-82
2022/01/17 14:20:32;;;;;;;;;;;4.40;99.90;;;;;;5057694;28;19931;-83
2022/01/17 14:22:58;;;;;;;;;;;4.40;99.90;;;;;;4963474;28;19935;-82
2022/01/17 14:25:26;;;;;;;;;;;4.40;99.90;;;;;;4762497;29;19921;-83
2022/01/17 14:27:57;;;;;;;;;;;4.40;99.90;;;;;;4404649;31;20015;-83
2022/01/17 14:35:34;;;;;;;;;;;4.40;99.90;;;;;;5202266;27;19925;-84
2022/01/17 14:38:02;;;;;;;;;;;4.40;99.90;;;;;;5163346;27;19923;-90
2022/01/17 14:40:32;;;;;;;;;;;4.30;99.90;;;;;;5159577;27;19923;-88
2022/01/17 14:43:09;;;;;;;;;;;4.30;99.90;;;;;;5104541;28;19931;-87
2022/01/17 14:45:38;;;;;;;;;;;4.30;99.90;;;;;;4986084;28;19933;-88
2022/01/17 14:48:13;;;;;;;;;;;4.20;99.90;;;;;;4845851;29;19937;-87
2022/01/17 14:50:40;;;;;;;;;;;4.20;99.90;;;;;;4539518;30;19943;-87
2022/01/17 15:00:36;;;;;;;;;;;4.10;99.90;;;;;;5102213;27;19931;-80
2022/01/17 15:03:09;;;;;;;;;;;4.10;99.90;;;;;;5050830;28;19932;-81
2022/01/17 15:05:38;;;;;;;;;;;4.00;99.90;;;;;;5040126;28;19928;-85
2022/01/17 15:08:06;;;;;;;;;;;4.00;99.90;;;;;;4949814;28;19927;-84
2022/01/17 15:10:33;;;;;;;;;;;4.00;99.90;;;;;;4719078;29;19932;-84
2022/01/17 15:13:02;;;;;;;;;;;3.90;99.90;;;;;;4378076;31;19940;-86
2022/01/17 15:20:35;;;;;;;;;;;3.80;99.90;;;;;;5176373;27;19926;-85
2022/01/17 15:23:11;;;;;;;;;;;3.80;99.90;;;;;;5119822;27;19930;-84
2022/01/17 15:26:13;;;;;;;;;;;3.80;99.90;;;;;;5098102;28;19924;-85
2022/01/17 15:28:56;;;;;;;;;;;3.80;99.90;;;;;;5082928;28;19924;-85
2022/01/17 15:31:22;;;;;;;;;;;3.70;99.90;;;;;;5003906;28;19929;-83
2022/01/17 15:33:50;;;;;;;;;;;3.70;99.90;;;;;;4866911;29;19936;-81
2022/01/17 15:36:18;;;;;;;;;;;3.60;99.90;;;;;;4605965;29;19936;-82
2022/01/17 15:38:48;;;;;;;;;;;3.60;99.90;;;;;;4209108;33;19945;-83
2022/01/17 15:45:03;;;;;;;;;;;3.60;99.90;;;;;;5174917;27;19930;-89
2022/01/17 15:47:31;;;;;;;;;;;3.60;99.90;;;;;;5139723;27;19935;-87
2022/01/17 15:49:58;;;;;;;;;;;3.50;99.90;;;;;;5139451;27;19923;-86
2022/01/17 15:52:25;;;;;;;;;;;3.40;99.90;;;;;;5113757;28;19931;-84
2022/01/17 15:54:54;;;;;;;;;;;3.40;99.90;;;;;;5015179;28;20004;-83
2022/01/17 15:57:23;;;;;;;;;;;3.30;99.90;;;;;;4839876;29;19945;-85
2022/01/17 15:59:51;;;;;;;;;;;3.30;99.90;;;;;;4555159;30;19958;-87
2022/01/17 16:05:45;;;;;;;;;;;3.30;99.90;;;;;;5174127;27;19925;-84
2022/01/17 16:08:12;;;;;;;;;;;3.30;99.90;;;;;;5092254;28;19931;-82
2022/01/17 16:10:43;;;;;;;;;;;3.20;99.90;;;;;;5059851;28;19932;-85
2022/01/17 16:13:09;;;;;;;;;;;3.20;99.90;;;;;;5026125;28;19925;-83
2022/01/17 16:15:36;;;;;;;;;;;3.20;99.90;;;;;;4960093;28;19927;-83
2022/01/17 16:18:03;;;;;;;;;;;3.10;99.90;;;;;;4852164;29;19930;-84
2022/01/17 16:20:30;;;;;;;;;;;3.10;99.90;;;;;;4548900;30;19925;-80
2022/01/17 16:28:02;;;;;;;;;;;3.00;99.90;;;;;;5186471;27;19925;-80
2022/01/17 16:30:28;;;;;;;;;;;2.90;99.90;;;;;;5143677;27;19930;-86
2022/01/17 16:32:55;;;;;;;;;;;2.90;99.90;;;;;;5116882;27;19931;-82
2022/01/17 16:35:22;;;;;;;;;;;2.90;99.90;;;;;;5116252;27;19930;-84
2022/01/17 16:37:49;;;;;;;;;;;2.90;99.90;;;;;;5055213;28;19926;-83
2022/01/17 16:40:16;;;;;;;;;;;2.90;99.90;;;;;;4777504;29;19938;-82
2022/01/17 16:42:42;;;;;;;;;;;2.90;99.90;;;;;;4596730;30;19939;-83
2022/01/17 16:50:16;;;;;;;;;;;2.80;99.90;;;;;;5178659;27;19926;-81
2022/01/17 16:52:43;;;;;;;;;;;2.90;99.90;;;;;;5090761;28;19931;-84
2022/01/17 16:55:10;;;;;;;;;;;2.80;99.90;;;;;;5110368;28;19924;-83
2022/01/17 16:57:37;;;;;;;;;;;2.80;99.90;;;;;;5068994;28;19928;-81
2022/01/17 17:00:04;;;;;;;;;;;2.80;99.90;;;;;;4967696;28;19932;-79
2022/01/17 17:02:31;;;;;;;;;;;2.90;99.90;;;;;;4781376;29;19943;-79
2022/01/17 17:04:57;;;;;;;;;;;2.80;99.90;;;;;;4563599;30;19937;-79
2022/01/17 17:12:29;;;;;;;;;;;2.80;99.90;;;;;;5157014;27;19926;-82
2022/01/17 17:14:56;;;;;;;;;;;2.80;99.90;;;;;;5120187;27;19930;-81
2022/01/17 17:17:23;;;;;;;;;;;2.80;99.90;;;;;;5119271;27;19931;-86
2022/01/17 17:19:50;;;;;;;;;;;2.80;99.90;;;;;;5115549;28;19923;-80
2022/01/17 17:22:17;;;;;;;;;;;2.70;99.90;;;;;;4996834;28;19934;-84
2022/01/17 17:24:44;;;;;;;;;;;2.70;99.90;;;;;;4780785;29;19932;-84
2022/01/17 17:27:11;;;;;;;;;;;2.70;99.90;;;;;;4528835;30;19943;-84
2022/01/17 17:34:59;;;;;;;;;;;2.50;99.90;;;;;;5180796;27;19945;-87
2022/01/17 17:37:43;;;;;;;;;;;2.50;99.90;;;;;;5099593;28;19931;-87
2022/01/17 17:40:10;;;;;;;;;;;2.50;99.90;;;;;;5073089;28;19932;-86
2022/01/17 17:42:39;;;;;;;;;;;2.40;99.90;;;;;;5047352;28;19925;-88
2022/01/17 17:45:06;;;;;;;;;;;2.40;99.90;;;;;;4950572;28;19944;-89
2022/01/17 17:47:33;;;;;;;;;;;2.30;99.90;;;;;;4749295;29;19932;-81
2022/01/17 17:50:00;;;;;;;;;;;2.30;99.90;;;;;;4489533;30;19937;-84
2022/01/17 17:57:28;;;;;;;;;;;2.20;99.90;;;;;;5174134;27;19926;-85
2022/01/17 17:59:54;;;;;;;;;;;2.20;99.90;;;;;;5138069;27;19923;-87
2022/01/17 18:02:22;;;;;;;;;;;2.20;99.90;;;;;;5116920;27;19931;-83
2022/01/17 18:04:49;;;;;;;;;;;2.10;99.90;;;;;;5092123;28;19925;-85
2022/01/17 18:07:16;;;;;;;;;;;2.20;99.90;;;;;;4970633;28;19927;-84
2022/01/17 18:09:42;;;;;;;;;;;2.20;99.90;;;;;;4731538;29;19940;-84
2022/01/17 18:12:09;;;;;;;;;;;2.10;99.90;;;;;;4425351;31;19947;-82
2022/01/17 18:19:41;;;;;;;;;;;2.20;99.90;;;;;;5175952;27;19925;-86
2022/01/17 18:22:08;;;;;;;;;;;2.20;99.90;;;;;;5126223;27;19927;-79
2022/01/17 18:24:35;;;;;;;;;;;2.20;99.90;;;;;;5112559;27;19938;-79
2022/01/17 18:27:02;;;;;;;;;;;2.20;99.90;;;;;;5080897;28;19928;-81
2022/01/17 18:29:28;;;;;;;;;;;2.10;99.90;;;;;;4994097;28;19937;-81
2022/01/17 18:31:55;;;;;;;;;;;2.10;99.90;;;;;;4837432;29;19936;-84
2022/01/17 18:34:22;;;;;;;;;;;2.10;99.90;;;;;;4701870;29;19932;-83
2022/01/17 18:39:39;;;;;;;;;;;2.10;99.90;;;;;;5175552;27;19925;-85
2022/01/17 18:42:07;;;;;;;;;;;2.10;99.90;;;;;;5134357;27;19924;-84
2022/01/17 18:44:34;;;;;;;;;;;2.10;99.90;;;;;;5130449;27;19924;-83
2022/01/17 18:47:01;;;;;;;;;;;2.10;99.90;;;;;;5099655;28;19928;-87
2022/01/17 18:49:32;;;;;;;;;;;2.10;99.90;;;;;;5016772;28;19930;-85
2022/01/17 18:52:03;;;;;;;;;;;2.10;99.90;;;;;;4858609;29;19933;-82
2022/01/17 18:54:33;;;;;;;;;;;2.10;99.90;;;;;;4707668;29;19937;-87
2022/01/17 19:00:22;;;;;;;;;;;2.10;99.90;;;;;;5175792;27;19926;-83
2022/01/17 19:02:49;;;;;;;;;;;2.10;99.90;;;;;;5135678;27;19924;-82
2022/01/17 19:05:16;;;;;;;;;;;2.10;99.90;;;;;;5090383;28;19931;-82
2022/01/17 19:07:46;;;;;;;;;;;2.10;99.90;;;;;;5085487;28;19928;-85